Time;durP1;ratioP1;P1;durP2;ratioP2;P2;SDS_P1;SDS_P2;PMS_P1;PMS_P2;Temp;Humidity;BMP_temperature;BMP_pressure;BME280_temperature;BME280_humidity;BME280_pressure;Samples;Min_cycle;Max_cycle;Signal;HPM_P1;HPM_P2
2021/11/22 00:00:12;;;;;;;19.17;8.93;;;7.20;84.40;;;;;;5162781;27;20105;-67
2021/11/22 00:02:38;;;;;;;37.10;16.27;;;7.30;84.40;;;;;;5152634;27;20027;-67
2021/11/22 00:05:05;;;;;;;10.05;4.07;;;7.30;84.30;;;;;;5154670;27;20039;-67
2021/11/22 00:07:31;;;;;;;8.18;2.38;;;7.30;84.00;;;;;;5152303;27;20037;-67
2021/11/22 00:09:56;;;;;;;12.65;4.78;;;7.30;83.90;;;;;;5155463;27;20043;-67
2021/11/22 00:12:23;;;;;;;12.55;5.65;;;7.30;83.90;;;;;;5152973;27;20095;-67
2021/11/22 00:14:49;;;;;;;7.78;3.08;;;7.20;83.80;;;;;;5151580;27;20023;-67
2021/11/22 00:17:15;;;;;;;4.97;2.13;;;7.20;83.90;;;;;;5160135;27;20029;-67
2021/11/22 00:19:40;;;;;;;6.13;2.67;;;7.20;83.90;;;;;;5150545;27;20035;-67
2021/11/22 00:22:07;;;;;;;7.32;2.53;;;7.20;84.00;;;;;;5138689;27;20030;-67
2021/11/22 00:24:33;;;;;;;4.75;1.58;;;7.10;84.00;;;;;;5155800;27;20087;-67
2021/11/22 00:26:59;;;;;;;5.47;2.00;;;7.10;84.00;;;;;;5149942;27;20027;-67
2021/11/22 00:29:25;;;;;;;8.20;1.23;;;7.10;84.30;;;;;;5130588;27;20027;-67
2021/11/22 00:31:52;;;;;;;5.80;1.38;;;7.10;84.30;;;;;;5165708;27;20042;-68
2021/11/22 00:34:19;;;;;;;3.90;1.30;;;7.10;84.40;;;;;;5157953;27;20014;-67
2021/11/22 00:36:45;;;;;;;2.55;0.82;;;7.10;84.30;;;;;;5155274;27;20098;-67
2021/11/22 00:39:11;;;;;;;5.18;0.90;;;7.00;84.20;;;;;;5153993;27;20026;-67
2021/11/22 00:41:37;;;;;;;4.32;0.88;;;7.00;84.20;;;;;;5171776;27;20046;-67
2021/11/22 00:44:03;;;;;;;2.30;0.80;;;7.00;84.30;;;;;;5154135;27;20034;-67
2021/11/22 00:46:29;;;;;;;7.25;1.30;;;7.00;84.30;;;;;;5150460;27;20035;-67
2021/11/22 00:48:54;;;;;;;3.83;1.00;;;7.00;84.30;;;;;;5145952;27;20083;-67
2021/11/22 00:51:20;;;;;;;5.22;1.10;;;7.00;84.40;;;;;;5149728;27;20038;-67
2021/11/22 00:53:50;;;;;;;2.55;1.00;;;6.90;84.40;;;;;;5138640;27;20023;-67
2021/11/22 00:56:21;;;;;;;2.88;0.93;;;6.90;84.50;;;;;;5152347;27;20037;-67
2021/11/22 00:58:49;;;;;;;5.10;0.93;;;6.90;84.50;;;;;;5144302;27;20022;-67
2021/11/22 01:01:24;;;;;;;3.83;1.02;;;6.90;84.40;;;;;;5142436;27;20027;-67
2021/11/22 01:03:57;;;;;;;5.78;1.63;;;6.90;84.70;;;;;;5138932;27;20015;-67
2021/11/22 01:06:27;;;;;;;4.85;0.98;;;6.90;84.80;;;;;;5138188;27;20497;-67
2021/11/22 01:08:57;;;;;;;4.13;1.10;;;6.90;84.80;;;;;;5134813;27;20114;-67
2021/11/22 01:11:25;;;;;;;4.90;1.10;;;6.90;85.40;;;;;;5144547;27;20098;-67
2021/11/22 01:13:55;;;;;;;4.90;1.33;;;6.90;84.80;;;;;;5117703;27;20031;-67
2021/11/22 01:16:30;;;;;;;5.38;1.20;;;6.80;84.80;;;;;;5138902;27;20038;-67
2021/11/22 01:19:07;;;;;;;5.32;1.23;;;6.80;84.80;;;;;;5142681;27;20113;-67
2021/11/22 01:21:41;;;;;;;6.43;1.38;;;6.80;85.00;;;;;;5154022;27;20018;-67
2021/11/22 01:24:10;;;;;;;6.13;1.30;;;6.80;85.00;;;;;;5153055;27;20438;-67
2021/11/22 01:26:40;;;;;;;6.35;1.50;;;6.70;85.00;;;;;;5153508;27;20442;-67
2021/11/22 01:29:06;;;;;;;5.05;1.30;;;6.70;85.30;;;;;;5141043;27;20027;-67
2021/11/22 01:31:31;;;;;;;5.03;1.10;;;6.60;85.20;;;;;;5156133;27;20026;-67
2021/11/22 01:33:58;;;;;;;5.47;1.17;;;6.60;85.50;;;;;;5163400;27;20041;-67
2021/11/22 01:36:24;;;;;;;4.90;1.30;;;6.60;85.70;;;;;;5150021;27;20484;-67
2021/11/22 01:38:50;;;;;;;6.35;1.30;;;6.50;85.70;;;;;;5151836;27;20054;-68
2021/11/22 01:41:16;;;;;;;5.57;1.20;;;6.50;85.90;;;;;;5137553;27;20042;-67
2021/11/22 01:43:42;;;;;;;5.82;1.30;;;6.50;86.00;;;;;;5162498;27;20030;-67
2021/11/22 01:46:15;;;;;;;5.13;1.20;;;6.40;86.00;;;;;;5161802;27;20105;-67
2021/11/22 01:48:41;;;;;;;4.50;1.08;;;6.40;86.10;;;;;;5144124;27;20052;-68
2021/11/22 01:51:07;;;;;;;3.65;0.90;;;6.40;86.10;;;;;;5154669;27;20030;-68
2021/11/22 01:53:33;;;;;;;5.72;1.10;;;6.40;86.30;;;;;;5153764;27;20049;-67
2021/11/22 01:55:58;;;;;;;6.20;1.20;;;6.40;86.30;;;;;;5155751;27;20027;-67
2021/11/22 01:58:24;;;;;;;7.28;1.33;;;6.30;86.20;;;;;;5156420;27;20038;-67
2021/11/22 02:00:56;;;;;;;3.20;1.00;;;6.30;86.30;;;;;;5150910;27;20029;-67
2021/11/22 02:03:22;;;;;;;5.50;1.30;;;6.30;86.40;;;;;;5143724;27;20389;-67
2021/11/22 02:05:51;;;;;;;9.32;1.23;;;6.20;86.60;;;;;;5168822;27;20469;-67
2021/11/22 02:08:18;;;;;;;7.93;1.20;;;6.20;86.60;;;;;;5153723;27;20054;-67
2021/11/22 02:10:45;;;;;;;5.38;1.10;;;6.20;86.70;;;;;;5155989;27;20042;-67
2021/11/22 02:13:11;;;;;;;5.28;1.02;;;6.20;86.70;;;;;;5147630;27;20035;-68
2021/11/22 02:15:37;;;;;;;5.35;1.00;;;6.20;86.80;;;;;;5143350;27;20369;-67
2021/11/22 02:18:04;;;;;;;5.07;0.90;;;6.10;86.70;;;;;;5150844;27;20083;-67
2021/11/22 02:20:31;;;;;;;4.88;1.10;;;6.10;86.90;;;;;;5144576;27;20101;-67
2021/11/22 02:23:05;;;;;;;3.83;0.90;;;6.10;87.00;;;;;;5155822;27;20054;-67
2021/11/22 02:25:32;;;;;;;6.22;1.08;;;6.10;86.90;;;;;;5146009;27;20023;-67
2021/11/22 02:27:59;;;;;;;5.78;1.05;;;6.00;86.80;;;;;;5151172;27;20056;-67
2021/11/22 02:30:31;;;;;;;5.72;1.10;;;6.00;87.00;;;;;;5140587;27;20027;-67
2021/11/22 02:33:01;;;;;;;4.97;1.38;;;6.00;86.90;;;;;;5132522;27;20118;-67
2021/11/22 02:35:27;;;;;;;5.35;1.05;;;6.00;87.00;;;;;;5155040;27;20020;-67
2021/11/22 02:37:53;;;;;;;7.93;1.02;;;5.90;86.90;;;;;;5150857;27;20109;-67
2021/11/22 02:40:19;;;;;;;5.95;0.93;;;5.90;86.90;;;;;;5149481;27;20098;-67
2021/11/22 02:42:46;;;;;;;3.50;1.02;;;5.90;87.90;;;;;;5153609;27;20545;-67
2021/11/22 02:45:15;;;;;;;5.15;1.10;;;5.80;87.00;;;;;;5149924;27;20018;-67
2021/11/22 02:47:42;;;;;;;4.00;1.05;;;5.80;87.30;;;;;;5149618;27;20113;-67
2021/11/22 02:50:11;;;;;;;4.60;1.05;;;5.80;87.30;;;;;;5150370;27;20066;-67
2021/11/22 02:52:38;;;;;;;6.30;1.20;;;5.80;87.40;;;;;;5152192;27;20489;-67
2021/11/22 02:55:06;;;;;;;6.43;1.27;;;5.70;87.40;;;;;;5152853;27;20023;-67
2021/11/22 02:57:32;;;;;;;4.22;1.00;;;5.70;87.50;;;;;;5152870;27;20018;-67
2021/11/22 02:59:58;;;;;;;5.32;1.23;;;5.70;87.60;;;;;;5144619;27;20078;-67
2021/11/22 03:02:23;;;;;;;5.10;0.90;;;5.70;87.60;;;;;;5130995;27;20026;-67
2021/11/22 03:04:49;;;;;;;4.68;0.90;;;5.60;87.70;;;;;;5160786;27;20019;-67
2021/11/22 03:07:15;;;;;;;6.32;1.25;;;5.50;87.60;;;;;;5150984;27;20046;-67
2021/11/22 03:09:41;;;;;;;4.97;0.93;;;5.50;87.90;;;;;;5147259;27;20054;-67
2021/11/22 03:12:12;;;;;;;7.35;1.00;;;5.50;88.00;;;;;;5147547;27;20501;-67
2021/11/22 03:14:39;;;;;;;6.22;1.10;;;5.40;88.00;;;;;;5149111;27;20108;-67
2021/11/22 03:17:06;;;;;;;5.25;0.88;;;5.40;88.20;;;;;;5150813;27;20038;-68
2021/11/22 03:19:31;;;;;;;4.63;0.88;;;5.30;88.30;;;;;;5146606;27;20054;-67
2021/11/22 03:22:00;;;;;;;5.35;1.23;;;5.30;88.60;;;;;;5147881;27;20489;-67
2021/11/22 03:24:27;;;;;;;6.40;1.00;;;5.30;88.80;;;;;;5148152;27;20022;-67
2021/11/22 03:26:53;;;;;;;4.60;1.00;;;5.30;88.90;;;;;;5144204;27;20026;-67
2021/11/22 03:29:19;;;;;;;5.78;0.90;;;5.30;88.80;;;;;;5146799;27;20027;-67
2021/11/22 03:31:46;;;;;;;5.95;1.05;;;5.20;88.90;;;;;;5144564;27;20030;-67
2021/11/22 03:34:12;;;;;;;3.80;0.80;;;5.20;89.00;;;;;;5143255;27;20030;-67
2021/11/22 03:36:41;;;;;;;8.70;1.00;;;5.20;89.10;;;;;;5144955;27;20015;-67
2021/11/22 03:39:17;;;;;;;7.97;1.35;;;5.20;89.50;;;;;;5146653;27;20022;-67
2021/11/22 03:41:43;;;;;;;3.03;0.80;;;5.20;89.30;;;;;;5147606;27;20027;-67
2021/11/22 03:44:10;;;;;;;6.55;1.02;;;5.20;89.30;;;;;;5150931;27;20074;-67
2021/11/22 03:46:39;;;;;;;4.63;0.93;;;5.10;89.40;;;;;;5146540;27;20122;-67
2021/11/22 03:49:05;;;;;;;6.80;1.15;;;5.10;89.40;;;;;;5148321;27;20022;-67
2021/11/22 03:51:31;;;;;;;6.82;1.10;;;5.10;89.60;;;;;;5145017;27;20031;-67
2021/11/22 03:53:56;;;;;;;6.63;1.10;;;5.10;89.90;;;;;;5147622;27;20401;-68
2021/11/22 03:56:22;;;;;;;7.05;1.13;;;5.10;90.00;;;;;;5148971;27;20167;-67
2021/11/22 03:58:48;;;;;;;3.53;1.08;;;5.00;89.90;;;;;;5147971;27;20026;-67
2021/11/22 04:01:14;;;;;;;7.70;1.08;;;5.10;90.00;;;;;;5145748;27;20045;-67
2021/11/22 04:03:40;;;;;;;6.38;1.10;;;5.00;90.00;;;;;;5143970;27;20022;-67
2021/11/22 04:06:06;;;;;;;7.25;1.50;;;5.00;90.00;;;;;;5147733;27;20034;-67
2021/11/22 04:08:32;;;;;;;5.53;0.90;;;5.00;89.90;;;;;;5154680;27;20031;-67
2021/11/22 04:10:58;;;;;;;4.10;0.80;;;5.00;90.00;;;;;;5148486;27;20497;-67
2021/11/22 04:13:23;;;;;;;10.75;1.08;;;4.90;89.90;;;;;;5148768;27;20102;-67
2021/11/22 04:15:50;;;;;;;7.10;1.38;;;4.90;90.00;;;;;;5147393;27;20170;-67
2021/11/22 04:18:16;;;;;;;6.55;1.00;;;4.80;90.10;;;;;;5142277;27;20163;-67
2021/11/22 04:20:42;;;;;;;6.03;1.08;;;4.80;90.10;;;;;;5151560;27;20056;-67
2021/11/22 04:23:10;;;;;;;7.20;1.20;;;4.80;90.10;;;;;;5150858;27;20069;-67
2021/11/22 04:25:36;;;;;;;5.95;1.30;;;4.80;90.10;;;;;;5142593;27;20015;-67
2021/11/22 04:28:03;;;;;;;6.20;0.90;;;4.80;90.20;;;;;;5141701;27;20370;-67
2021/11/22 04:30:31;;;;;;;7.10;1.08;;;4.80;90.20;;;;;;5149440;27;20022;-67
2021/11/22 04:32:57;;;;;;;6.97;1.15;;;4.80;90.30;;;;;;5149098;27;20590;-68
2021/11/22 04:35:23;;;;;;;6.65;1.10;;;4.70;90.30;;;;;;5149451;27;20113;-67
2021/11/22 04:37:49;;;;;;;8.65;1.30;;;4.80;90.30;;;;;;5157244;27;20493;-67
2021/11/22 04:40:17;;;;;;;6.63;1.00;;;4.70;90.40;;;;;;5146695;27;20079;-67
2021/11/22 04:42:47;;;;;;;5.95;1.13;;;4.80;90.40;;;;;;5156772;27;20023;-67
2021/11/22 04:45:14;;;;;;;18.67;1.30;;;4.80;90.40;;;;;;5150886;27;20023;-67
2021/11/22 04:47:40;;;;;;;4.68;1.00;;;4.80;90.50;;;;;;5149620;27;20042;-67
2021/11/22 04:50:07;;;;;;;7.30;1.23;;;4.80;90.60;;;;;;5149186;27;20018;-67
2021/11/22 04:52:34;;;;;;;5.82;1.17;;;4.80;90.70;;;;;;5149820;27;20027;-67
2021/11/22 04:55:00;;;;;;;6.38;1.63;;;4.80;90.60;;;;;;5154677;27;20160;-67
2021/11/22 04:57:26;;;;;;;10.60;1.38;;;4.80;90.60;;;;;;5149234;27;20105;-67
2021/11/22 04:59:52;;;;;;;7.75;1.30;;;4.80;90.50;;;;;;5150197;27;20014;-67
2021/11/22 05:02:18;;;;;;;3.88;0.95;;;4.70;90.50;;;;;;5152165;27;20023;-67
2021/11/22 05:04:44;;;;;;;8.73;1.55;;;4.70;90.50;;;;;;5136130;27;20030;-67
2021/11/22 05:07:10;;;;;;;3.97;1.02;;;4.70;90.60;;;;;;5153369;27;20033;-68
2021/11/22 05:09:36;;;;;;;7.47;1.20;;;4.70;90.60;;;;;;5150895;27;20042;-68
2021/11/22 05:12:02;;;;;;;9.07;1.23;;;4.70;90.60;;;;;;5151397;27;20045;-67
2021/11/22 05:14:27;;;;;;;5.25;1.08;;;4.60;90.50;;;;;;5156157;27;20018;-67
2021/11/22 05:16:53;;;;;;;7.18;1.00;;;4.60;90.50;;;;;;5147494;27;20026;-67
2021/11/22 05:19:20;;;;;;;5.78;0.95;;;4.60;90.90;;;;;;5148049;27;20027;-67
2021/11/22 05:21:46;;;;;;;8.98;1.45;;;4.50;90.50;;;;;;5146530;27;20027;-67
2021/11/22 05:24:12;;;;;;;7.88;1.20;;;4.50;90.60;;;;;;5152720;27;20564;-67
2021/11/22 05:26:39;;;;;;;5.25;1.08;;;4.50;90.60;;;;;;5148620;27;20401;-68
2021/11/22 05:29:08;;;;;;;5.25;1.02;;;4.50;90.70;;;;;;5158126;27;20031;-68
2021/11/22 05:31:36;;;;;;;8.77;1.33;;;4.50;90.80;;;;;;5155315;27;20033;-68
2021/11/22 05:34:02;;;;;;;6.85;1.30;;;4.50;90.90;;;;;;5154598;27;20031;-66
2021/11/22 05:36:28;;;;;;;8.35;1.30;;;4.50;90.90;;;;;;5148404;27;20503;-68
2021/11/22 05:38:53;;;;;;;9.68;1.52;;;4.50;91.00;;;;;;5166207;27;20524;-67
2021/11/22 05:41:19;;;;;;;8.82;1.45;;;4.50;90.90;;;;;;5146100;27;20058;-68
2021/11/22 05:43:46;;;;;;;8.82;1.13;;;4.60;91.00;;;;;;5147297;27;20106;-67
2021/11/22 05:46:12;;;;;;;6.88;1.45;;;4.60;91.00;;;;;;5142937;27;20038;-67
2021/11/22 05:48:38;;;;;;;7.97;1.33;;;4.60;91.20;;;;;;5144849;27;20026;-67
2021/11/22 05:51:07;;;;;;;8.95;1.80;;;4.70;91.20;;;;;;5151897;27;20088;-67
2021/11/22 05:53:34;;;;;;;9.30;1.10;;;4.70;91.20;;;;;;5137443;27;20524;-66
2021/11/22 05:56:02;;;;;;;7.22;1.27;;;4.80;91.20;;;;;;5166508;27;20109;-67
2021/11/22 05:58:31;;;;;;;7.03;1.20;;;4.80;91.20;;;;;;5158079;27;20477;-67
2021/11/22 06:01:01;;;;;;;10.13;1.38;;;4.80;91.10;;;;;;5144018;27;20031;-68
2021/11/22 06:03:30;;;;;;;9.18;1.38;;;4.80;91.00;;;;;;5147426;27;20054;-66
2021/11/22 06:05:56;;;;;;;7.50;1.40;;;4.80;90.90;;;;;;5140069;27;20705;-67
2021/11/22 06:08:22;;;;;;;6.95;1.27;;;4.80;90.90;;;;;;5145769;27;20437;-67
2021/11/22 06:10:51;;;;;;;6.88;1.30;;;4.80;90.90;;;;;;5141803;27;20039;-68
2021/11/22 06:13:18;;;;;;;16.02;1.58;;;4.70;90.80;;;;;;5153646;27;20489;-65
2021/11/22 06:15:46;;;;;;;7.57;1.27;;;4.70;90.80;;;;;;5149249;27;20023;-67
2021/11/22 06:18:12;;;;;;;11.02;1.40;;;4.70;90.90;;;;;;5153752;27;20034;-68
2021/11/22 06:20:38;;;;;;;12.90;1.60;;;4.60;90.80;;;;;;5151515;27;20018;-67
2021/11/22 06:23:04;;;;;;;8.65;1.38;;;4.60;90.90;;;;;;5148710;27;20023;-67
2021/11/22 06:25:31;;;;;;;7.97;1.45;;;4.60;91.00;;;;;;5153684;27;20022;-68
2021/11/22 06:27:56;;;;;;;10.88;1.30;;;4.60;91.10;;;;;;5153378;27;20060;-68
2021/11/22 06:30:22;;;;;;;7.15;1.35;;;4.60;91.10;;;;;;5164829;27;20052;-68
2021/11/22 06:32:48;;;;;;;10.48;1.50;;;4.60;91.10;;;;;;5147084;27;20147;-67
2021/11/22 06:35:17;;;;;;;16.83;1.50;;;4.60;91.10;;;;;;5136309;27;20022;-67
2021/11/22 06:37:44;;;;;;;5.90;1.30;;;4.70;91.10;;;;;;5148433;27;20034;-68
2021/11/22 06:40:10;;;;;;;8.68;1.45;;;4.60;91.10;;;;;;5145230;27;20026;-68
2021/11/22 06:42:37;;;;;;;8.98;1.20;;;4.60;91.00;;;;;;5143067;27;20019;-68
2021/11/22 06:45:04;;;;;;;6.50;1.20;;;4.60;91.10;;;;;;5146469;27;20019;-68
2021/11/22 06:47:31;;;;;;;8.48;1.27;;;4.60;91.10;;;;;;5148905;27;20406;-68
2021/11/22 06:49:57;;;;;;;8.65;1.30;;;4.60;91.10;;;;;;5154664;27;20015;-67
2021/11/22 06:52:23;;;;;;;10.45;1.90;;;4.60;91.20;;;;;;5138500;27;20197;-67
2021/11/22 06:54:51;;;;;;;7.10;1.10;;;4.70;91.20;;;;;;5136114;27;20015;-67
2021/11/22 06:57:17;;;;;;;5.93;1.40;;;4.70;91.10;;;;;;5136081;27;20033;-66
2021/11/22 06:59:43;;;;;;;7.25;2.10;;;4.70;91.10;;;;;;5132651;27;20533;-67
2021/11/22 07:02:13;;;;;;;19.73;8.85;;;4.70;91.00;;;;;;5136577;27;20050;-66
2021/11/22 07:04:40;;;;;;;43.63;37.63;;;4.70;90.90;;;;;;5136258;27;20035;-67
2021/11/22 07:07:06;;;;;;;26.88;20.77;;;4.70;90.80;;;;;;5136632;27;20367;-66
2021/11/22 07:09:33;;;;;;;37.45;30.73;;;4.80;90.80;;;;;;5136832;27;20022;-66
2021/11/22 07:11:58;;;;;;;18.65;11.63;;;4.80;90.80;;;;;;5148007;27;20043;-67
2021/11/22 07:14:26;;;;;;;13.40;5.95;;;4.80;90.70;;;;;;5133616;27;20417;-66
2021/11/22 07:16:53;;;;;;;13.35;7.75;;;4.80;90.60;;;;;;5137435;27;20576;-66
2021/11/22 07:19:20;;;;;;;8.68;3.45;;;4.80;90.60;;;;;;5142934;27;20026;-67
2021/11/22 07:21:46;;;;;;;12.60;7.25;;;4.80;90.60;;;;;;5144360;27;20027;-66
2021/11/22 07:24:13;;;;;;;10.18;2.40;;;4.80;90.50;;;;;;5134765;27;20105;-66
2021/11/22 07:26:39;;;;;;;11.10;3.40;;;4.80;90.40;;;;;;5132974;27;20441;-66
2021/11/22 07:29:05;;;;;;;13.55;7.13;;;4.80;90.40;;;;;;5155479;27;20075;-66
2021/11/22 07:31:31;;;;;;;12.77;3.80;;;4.70;90.30;;;;;;5152612;27;20038;-67
2021/11/22 07:33:57;;;;;;;9.48;3.47;;;4.80;90.30;;;;;;5152038;27;20031;-66
2021/11/22 07:36:23;;;;;;;18.67;15.50;;;4.80;90.20;;;;;;5147938;27;20434;-66
2021/11/22 07:38:50;;;;;;;33.92;26.67;;;4.80;90.10;;;;;;5164726;27;20075;-67
2021/11/22 07:41:16;;;;;;;20.65;13.68;;;4.90;90.00;;;;;;5151551;27;20467;-66
2021/11/22 07:43:42;;;;;;;16.20;9.50;;;4.90;89.90;;;;;;5152281;27;20110;-66
2021/11/22 07:46:09;;;;;;;40.88;24.75;;;4.90;89.80;;;;;;5152388;27;20094;-66
2021/11/22 07:48:35;;;;;;;17.05;14.38;;;5.00;89.70;;;;;;5151640;27;20452;-66
2021/11/22 07:51:02;;;;;;;18.83;11.38;;;5.10;89.30;;;;;;5148362;27;20031;-66
2021/11/22 07:53:28;;;;;;;16.33;9.90;;;5.10;89.00;;;;;;5153027;27;20058;-67
2021/11/22 07:55:54;;;;;;;11.80;7.03;;;5.50;88.70;;;;;;5154062;27;20474;-66
2021/11/22 07:58:20;;;;;;;11.68;3.40;;;6.10;87.10;;;;;;5152212;27;20078;-66
2021/11/22 08:00:46;;;;;;;15.32;11.38;;;6.80;85.00;;;;;;5152382;27;20082;-66
2021/11/22 08:03:12;;;;;;;9.57;5.35;;;7.50;82.30;;;;;;5151077;27;20018;-66
2021/11/22 08:05:38;;;;;;;9.60;3.33;;;8.20;79.60;;;;;;5153483;27;20482;-67
2021/11/22 08:08:04;;;;;;;9.10;4.05;;;9.10;76.20;;;;;;5159039;27;20030;-66
2021/11/22 08:10:33;;;;;;;8.35;4.32;;;9.90;73.40;;;;;;5151365;27;20065;-66
2021/11/22 08:13:07;;;;;;;8.82;3.00;;;10.60;69.90;;;;;;5154027;27;20035;-66
2021/11/22 08:15:35;;;;;;;9.77;2.28;;;11.30;67.30;;;;;;5155896;27;20018;-67
2021/11/22 08:18:03;;;;;;;9.63;3.10;;;12.00;64.70;;;;;;5152254;27;20034;-67
2021/11/22 08:20:29;;;;;;;10.68;5.55;;;12.60;62.20;;;;;;5152091;27;20147;-67
2021/11/22 08:22:55;;;;;;;7.53;3.45;;;13.10;60.00;;;;;;5157014;27;20117;-67
2021/11/22 08:25:23;;;;;;;11.15;2.90;;;13.70;58.80;;;;;;5156138;27;20022;-67
2021/11/22 08:27:53;;;;;;;7.20;3.20;;;14.20;56.50;;;;;;5155952;27;20063;-67
2021/11/22 08:30:20;;;;;;;8.07;2.25;;;14.70;55.00;;;;;;5156166;27;20033;-66
2021/11/22 08:32:50;;;;;;;10.25;2.30;;;15.20;53.30;;;;;;5151768;27;20039;-66
2021/11/22 08:35:18;;;;;;;7.57;2.00;;;15.60;52.20;;;;;;5167537;27;20021;-66
2021/11/22 08:37:45;;;;;;;6.72;1.83;;;16.00;50.50;;;;;;5156240;27;20087;-67
2021/11/22 08:40:20;;;;;;;7.60;2.13;;;16.30;49.00;;;;;;5147090;27;20026;-66
2021/11/22 08:42:47;;;;;;;12.90;2.30;;;16.60;48.50;;;;;;5155645;27;20363;-66
2021/11/22 08:45:13;;;;;;;5.60;1.60;;;16.90;47.60;;;;;;5151223;27;20492;-67
2021/11/22 08:47:39;;;;;;;10.15;2.00;;;17.20;46.30;;;;;;5153154;27;20397;-66
2021/11/22 08:50:08;;;;;;;7.88;2.35;;;17.30;46.10;;;;;;5156991;27;20019;-67
2021/11/22 08:52:34;;;;;;;5.72;1.90;;;17.50;45.50;;;;;;5155829;27;20031;-66
2021/11/22 08:55:00;;;;;;;8.25;2.17;;;18.00;44.30;;;;;;5155125;27;20113;-67
2021/11/22 08:57:26;;;;;;;8.65;2.10;;;18.40;43.70;;;;;;5151514;27;20110;-66
2021/11/22 08:59:53;;;;;;;8.00;3.15;;;18.90;43.10;;;;;;5140332;27;20126;-66
2021/11/22 09:02:21;;;;;;;7.65;3.60;;;19.30;42.10;;;;;;5154038;27;20029;-67
2021/11/22 09:04:49;;;;;;;7.97;4.38;;;19.60;40.90;;;;;;5170218;27;20030;-67
2021/11/22 09:07:15;;;;;;;8.70;5.53;;;19.90;40.20;;;;;;5161181;27;20034;-68
2021/11/22 09:09:41;;;;;;;8.73;7.82;;;20.30;39.70;;;;;;5151314;27;20079;-68
2021/11/22 09:12:07;;;;;;;11.20;9.98;;;20.60;38.60;;;;;;5150459;27;20039;-68
2021/11/22 09:14:33;;;;;;;12.57;11.27;;;20.90;37.80;;;;;;5151626;27;20047;-68
2021/11/22 09:16:59;;;;;;;8.73;1.90;;;20.90;37.20;;;;;;5156233;27;20061;-66
2021/11/22 09:19:24;;;;;;;9.00;2.50;;;18.90;38.80;;;;;;5155115;27;20545;-65
2021/11/22 09:21:50;;;;;;;8.02;2.30;;;16.90;43.20;;;;;;5139323;27;20023;-65
2021/11/22 09:24:16;;;;;;;4.97;1.15;;;15.30;46.60;;;;;;5150640;27;20454;-65
2021/11/22 09:26:42;;;;;;;4.75;1.40;;;14.10;49.80;;;;;;5159382;27;20585;-65
2021/11/22 09:29:08;;;;;;;5.65;1.35;;;13.20;52.30;;;;;;5153445;27;20066;-65
2021/11/22 09:31:35;;;;;;;8.43;3.30;;;12.60;55.20;;;;;;5155378;27;20389;-66
2021/11/22 09:34:01;;;;;;;10.73;6.25;;;12.10;57.00;;;;;;5140104;27;20019;-66
2021/11/22 09:36:27;;;;;;;7.72;4.40;;;11.80;58.30;;;;;;5144931;27;20025;-66
2021/11/22 09:38:53;;;;;;;9.98;7.53;;;12.30;58.30;;;;;;5147597;27;20023;-66
2021/11/22 09:41:22;;;;;;;8.40;7.00;;;14.20;55.10;;;;;;5158174;27;20018;-66
2021/11/22 09:43:48;;;;;;;7.68;5.00;;;16.70;49.40;;;;;;5155963;27;20109;-66
2021/11/22 09:46:15;;;;;;;6.28;5.38;;;18.50;43.80;;;;;;5149240;27;20171;-66
2021/11/22 09:48:42;;;;;;;7.82;5.85;;;19.80;40.30;;;;;;5151453;27;20029;-66
2021/11/22 09:51:11;;;;;;;9.68;8.90;;;20.40;38.90;;;;;;5152280;27;20082;-66
2021/11/22 09:53:40;;;;;;;13.65;12.65;;;18.80;40.50;;;;;;5153321;27;20031;-66
2021/11/22 09:56:06;;;;;;;3.88;1.27;;;17.40;42.50;;;;;;5154393;27;20011;-66
2021/11/22 09:58:33;;;;;;;3.33;0.95;;;16.60;44.20;;;;;;5149949;27;20031;-66
2021/11/22 10:01:05;;;;;;;6.32;1.70;;;18.40;42.00;;;;;;5146299;27;20023;-66
2021/11/22 10:03:31;;;;;;;13.80;12.65;;;20.40;38.30;;;;;;5147240;27;20026;-66
2021/11/22 10:06:00;;;;;;;12.77;11.55;;;21.80;36.20;;;;;;5150736;27;20023;-66
2021/11/22 10:08:27;;;;;;;12.13;11.13;;;22.90;34.20;;;;;;5154155;27;20018;-66
2021/11/22 10:10:59;;;;;;;11.40;10.40;;;23.90;32.50;;;;;;5148228;27;20038;-67
2021/11/22 10:13:24;;;;;;;14.18;12.85;;;24.70;30.50;;;;;;5156269;27;20109;-66
2021/11/22 10:15:55;;;;;;;11.02;10.07;;;25.30;29.70;;;;;;5140765;27;20110;-67
2021/11/22 10:18:24;;;;;;;11.38;10.40;;;25.80;28.40;;;;;;5144490;27;20022;-67
2021/11/22 10:20:52;;;;;;;10.40;9.40;;;26.10;28.10;;;;;;5135635;27;20019;-67
2021/11/22 10:23:26;;;;;;;9.82;9.00;;;26.50;27.80;;;;;;5161137;27;20015;-67
2021/11/22 10:25:54;;;;;;;8.02;7.22;;;26.70;26.70;;;;;;5143258;27;20035;-67
2021/11/22 10:28:23;;;;;;;7.82;7.13;;;26.90;26.40;;;;;;5136360;27;20462;-67
2021/11/22 10:30:52;;;;;;;7.40;6.80;;;27.20;26.20;;;;;;5152341;27;20018;-65
2021/11/22 10:33:21;;;;;;;11.95;11.02;;;27.50;25.90;;;;;;5141832;27;20113;-67
2021/11/22 10:35:49;;;;;;;7.40;6.03;;;27.80;25.60;;;;;;5149316;27;20525;-67
2021/11/22 10:38:20;;;;;;;6.15;5.55;;;28.10;24.90;;;;;;5157550;27;20469;-67
2021/11/22 10:40:48;;;;;;;;;;;28.40;24.50;;;;;;5155840;27;20026;-67
2021/11/22 10:43:14;;;;;;;6.18;5.53;;;28.60;24.70;;;;;;5152193;27;19913;-67
2021/11/22 10:45:46;;;;;;;7.00;6.35;;;28.80;24.10;;;;;;5152777;27;20022;-67
2021/11/22 10:48:26;;;;;;;6.45;5.10;;;28.90;23.40;;;;;;5151741;27;20018;-67
2021/11/22 10:51:01;;;;;;;;;;;29.10;23.40;;;;;;5133138;27;20489;-67
2021/11/22 10:53:34;;;;;;;6.40;5.45;;;29.40;22.80;;;;;;5153888;27;19999;-67
2021/11/22 10:56:02;;;;;;;6.50;5.45;;;29.90;22.80;;;;;;5155671;27;20058;-67
2021/11/22 10:58:30;;;;;;;5.47;3.78;;;30.20;22.30;;;;;;5152618;27;20034;-67
2021/11/22 11:00:57;;;;;;;4.28;3.75;;;30.30;22.20;;;;;;5136585;27;20485;-65
2021/11/22 11:03:26;;;;;;;5.43;4.30;;;30.40;21.90;;;;;;5152800;27;20030;-65
2021/11/22 11:05:59;;;;;;;7.00;6.37;;;30.50;21.70;;;;;;5150061;27;20034;-65
2021/11/22 11:08:29;;;;;;;8.30;7.50;;;30.70;21.50;;;;;;5154475;27;20784;-65
2021/11/22 11:11:12;;;;;;;10.88;10.02;;;30.90;21.30;;;;;;5156029;27;20038;-65
2021/11/22 11:13:50;;;;;;;20.40;19.10;;;31.10;21.00;;;;;;5152506;27;20034;-65
2021/11/22 11:16:16;;;;;;;18.35;17.00;;;31.20;20.90;;;;;;5152371;27;20034;-65
2021/11/22 11:18:56;;;;;;;32.60;30.45;;;31.40;21.00;;;;;;5152606;27;20038;-65
2021/11/22 11:21:28;;;;;;;11.07;10.20;;;31.60;20.40;;;;;;5154680;27;20072;-65
2021/11/22 11:23:54;;;;;;;7.45;6.80;;;31.60;20.40;;;;;;5136892;27;20019;-65
2021/11/22 11:26:20;;;;;;;4.80;4.05;;;31.70;20.10;;;;;;5155486;27;20382;-65
2021/11/22 11:28:46;;;;;;;12.20;11.32;;;31.80;20.30;;;;;;5153007;27;20474;-65
2021/11/22 11:31:12;;;;;;;3.88;2.50;;;32.20;20.00;;;;;;5151498;27;20049;-65
2021/11/22 11:33:38;;;;;;;4.30;1.67;;;32.20;19.80;;;;;;5151712;27;20053;-65
2021/11/22 11:36:12;;;;;;;4.10;1.27;;;32.50;19.70;;;;;;5149446;27;20398;-65
2021/11/22 11:38:50;;;;;;;4.50;1.20;;;32.70;19.70;;;;;;5151257;27;20022;-65
2021/11/22 11:42:02;;;;;;;3.08;1.05;;;32.70;18.80;;;;;;5168644;27;20067;-65
2021/11/22 11:44:41;;;;;;;3.47;1.25;;;32.80;19.00;;;;;;5083958;28;20048;-65
2021/11/22 11:47:25;;;;;;;3.85;1.20;;;33.00;18.90;;;;;;5076729;28;20163;-65
2021/11/22 11:49:54;;;;;;;4.43;1.15;;;33.20;18.90;;;;;;5074125;28;20041;-65
2021/11/22 11:52:29;;;;;;;3.42;1.00;;;33.00;18.40;;;;;;5086403;28;20036;-65
2021/11/22 11:54:56;;;;;;;3.00;1.02;;;33.00;18.50;;;;;;5080092;28;20534;-65
2021/11/22 11:57:25;;;;;;;3.67;1.13;;;33.20;18.30;;;;;;5086380;28;20039;-66
2021/11/22 11:59:51;;;;;;;3.38;1.10;;;33.10;18.30;;;;;;5087114;28;20062;-66
2021/11/22 12:02:22;;;;;;;2.70;1.10;;;33.10;18.20;;;;;;5086522;28;20410;-66
2021/11/22 12:04:48;;;;;;;4.18;1.00;;;33.10;18.00;;;;;;5077711;28;20115;-66
2021/11/22 12:07:23;;;;;;;8.27;7.07;;;33.10;18.10;;;;;;5082642;28;20542;-66
2021/11/22 12:10:03;;;;;;;5.97;1.40;;;32.90;17.80;;;;;;5080979;28;20047;-66
2021/11/22 12:12:34;;;;;;;8.63;7.47;;;32.80;17.90;;;;;;5077836;28;20029;-65
2021/11/22 12:15:04;;;;;;;5.63;2.15;;;32.60;18.00;;;;;;5073715;28;20020;-64
2021/11/22 12:17:39;;;;;;;2.42;1.10;;;32.60;18.00;;;;;;5071767;28;20115;-65
2021/11/22 12:20:05;;;;;;;3.50;1.02;;;32.60;18.10;;;;;;5108021;27;20524;-65
2021/11/22 12:22:35;;;;;;;3.85;1.38;;;32.80;18.10;;;;;;5146278;27;20046;-65
2021/11/22 12:25:02;;;;;;;5.03;2.30;;;33.00;18.10;;;;;;5146352;27;20023;-65
2021/11/22 12:27:27;;;;;;;3.65;1.45;;;33.00;18.10;;;;;;5147871;27;20033;-65
2021/11/22 12:29:58;;;;;;;4.55;1.50;;;33.20;18.20;;;;;;5169539;27;20023;-65
2021/11/22 12:32:28;;;;;;;4.50;1.00;;;33.40;18.20;;;;;;5168256;27;20030;-65
2021/11/22 12:34:59;;;;;;;4.30;3.15;;;33.20;18.00;;;;;;5157765;27;20102;-65
2021/11/22 12:37:30;;;;;;;6.05;2.50;;;31.50;18.70;;;;;;5153683;27;20023;-65
2021/11/22 12:40:10;;;;;;;7.45;4.78;;;27.80;20.10;;;;;;5144822;27;20034;-64
2021/11/22 12:42:50;;;;;;;5.07;1.07;;;25.10;22.70;;;;;;5152706;27;20026;-64
2021/11/22 12:45:18;;;;;;;4.68;1.92;;;23.30;24.50;;;;;;5154831;27;20366;-64
2021/11/22 12:47:44;;;;;;;3.90;1.00;;;22.00;26.40;;;;;;5142732;27;20038;-64
2021/11/22 12:50:20;;;;;;;5.35;1.63;;;21.20;27.60;;;;;;5158760;27;20034;-64
2021/11/22 12:53:05;;;;;;;3.00;0.90;;;20.60;28.60;;;;;;5157433;27;20035;-64